sensor_id;sensor_type;location;lat;lon;timestamp;P1;durP1;ratioP1;P2;durP2;ratioP2
13483;SDS011;6814;57.786;12.080;2023-11-22T00:00:12;3.00;;;2.23;;
13483;SDS011;6814;57.786;12.080;2023-11-22T00:02:39;2.60;;;2.40;;
13483;SDS011;6814;57.786;12.080;2023-11-22T00:05:06;2.30;;;2.10;;
13483;SDS011;6814;57.786;12.080;2023-11-22T00:07:32;2.63;;;2.30;;
13483;SDS011;6814;57.786;12.080;2023-11-22T00:09:59;4.80;;;2.30;;
13483;SDS011;6814;57.786;12.080;2023-11-22T00:12:26;2.73;;;2.43;;
13483;SDS011;6814;57.786;12.080;2023-11-22T00:14:54;3.13;;;1.83;;
13483;SDS011;6814;57.786;12.080;2023-11-22T00:17:21;2.53;;;2.33;;
13483;SDS011;6814;57.786;12.080;2023-11-22T00:19:48;2.17;;;2.07;;
13483;SDS011;6814;57.786;12.080;2023-11-22T00:22:14;2.40;;;2.20;;
13483;SDS011;6814;57.786;12.080;2023-11-22T00:24:41;3.27;;;2.50;;
13483;SDS011;6814;57.786;12.080;2023-11-22T00:27:10;2.40;;;2.20;;
13483;SDS011;6814;57.786;12.080;2023-11-22T00:29:40;2.47;;;2.30;;
13483;SDS011;6814;57.786;12.080;2023-11-22T00:32:08;2.17;;;2.07;;
13483;SDS011;6814;57.786;12.080;2023-11-22T00:34:34;2.40;;;2.20;;
13483;SDS011;6814;57.786;12.080;2023-11-22T00:37:01;2.50;;;2.30;;
13483;SDS011;6814;57.786;12.080;2023-11-22T00:39:28;2.57;;;2.37;;
13483;SDS011;6814;57.786;12.080;2023-11-22T00:41:54;2.60;;;2.40;;
13483;SDS011;6814;57.786;12.080;2023-11-22T00:44:20;2.60;;;2.40;;
13483;SDS011;6814;57.786;12.080;2023-11-22T00:46:47;2.63;;;2.40;;
13483;SDS011;6814;57.786;12.080;2023-11-22T00:49:15;2.80;;;2.60;;
13483;SDS011;6814;57.786;12.080;2023-11-22T00:51:41;3.07;;;2.60;;
13483;SDS011;6814;57.786;12.080;2023-11-22T00:54:07;2.77;;;2.43;;
13483;SDS011;6814;57.786;12.080;2023-11-22T00:56:34;2.77;;;2.57;;
13483;SDS011;6814;57.786;12.080;2023-11-22T00:59:01;2.60;;;2.40;;
13483;SDS011;6814;57.786;12.080;2023-11-22T01:01:29;2.07;;;1.93;;
13483;SDS011;6814;57.786;12.080;2023-11-22T01:03:56;2.30;;;2.10;;
13483;SDS011;6814;57.786;12.080;2023-11-22T01:06:24;3.13;;;2.10;;
13483;SDS011;6814;57.786;12.080;2023-11-22T01:08:50;2.77;;;2.20;;
13483;SDS011;6814;57.786;12.080;2023-11-22T01:11:16;3.17;;;2.47;;
13483;SDS011;6814;57.786;12.080;2023-11-22T01:13:43;2.70;;;2.40;;
13483;SDS011;6814;57.786;12.080;2023-11-22T01:16:09;2.57;;;2.37;;
13483;SDS011;6814;57.786;12.080;2023-11-22T01:18:36;2.60;;;2.40;;
13483;SDS011;6814;57.786;12.080;2023-11-22T01:21:03;2.17;;;2.00;;
13483;SDS011;6814;57.786;12.080;2023-11-22T01:23:31;2.40;;;2.20;;
13483;SDS011;6814;57.786;12.080;2023-11-22T01:25:57;2.30;;;2.10;;
13483;SDS011;6814;57.786;12.080;2023-11-22T01:28:24;2.53;;;2.33;;
13483;SDS011;6814;57.786;12.080;2023-11-22T01:30:52;2.60;;;2.30;;
13483;SDS011;6814;57.786;12.080;2023-11-22T01:33:19;2.30;;;2.07;;
13483;SDS011;6814;57.786;12.080;2023-11-22T01:35:45;2.40;;;2.17;;
13483;SDS011;6814;57.786;12.080;2023-11-22T01:38:13;2.30;;;2.10;;
13483;SDS011;6814;57.786;12.080;2023-11-22T01:40:44;2.63;;;2.43;;
13483;SDS011;6814;57.786;12.080;2023-11-22T01:43:12;2.50;;;2.30;;
13483;SDS011;6814;57.786;12.080;2023-11-22T01:45:40;2.90;;;2.60;;
13483;SDS011;6814;57.786;12.080;2023-11-22T01:48:06;2.83;;;2.63;;
13483;SDS011;6814;57.786;12.080;2023-11-22T01:50:35;2.60;;;2.40;;
13483;SDS011;6814;57.786;12.080;2023-11-22T01:53:02;2.50;;;2.30;;
13483;SDS011;6814;57.786;12.080;2023-11-22T01:55:29;2.53;;;2.33;;
13483;SDS011;6814;57.786;12.080;2023-11-22T01:57:57;3.37;;;2.70;;
13483;SDS011;6814;57.786;12.080;2023-11-22T02:00:24;2.60;;;2.40;;
13483;SDS011;6814;57.786;12.080;2023-11-22T02:02:52;2.80;;;2.23;;
13483;SDS011;6814;57.786;12.080;2023-11-22T02:05:19;2.43;;;2.23;;
13483;SDS011;6814;57.786;12.080;2023-11-22T02:07:45;2.60;;;2.10;;
13483;SDS011;6814;57.786;12.080;2023-11-22T02:10:12;2.70;;;2.50;;
13483;SDS011;6814;57.786;12.080;2023-11-22T02:12:38;2.60;;;2.40;;
13483;SDS011;6814;57.786;12.080;2023-11-22T02:15:07;3.03;;;2.33;;
13483;SDS011;6814;57.786;12.080;2023-11-22T02:17:33;2.43;;;2.20;;
13483;SDS011;6814;57.786;12.080;2023-11-22T02:20:01;2.40;;;2.20;;
13483;SDS011;6814;57.786;12.080;2023-11-22T02:22:31;2.33;;;2.13;;
13483;SDS011;6814;57.786;12.080;2023-11-22T02:24:59;2.63;;;2.43;;
13483;SDS011;6814;57.786;12.080;2023-11-22T02:27:25;2.50;;;2.30;;
13483;SDS011;6814;57.786;12.080;2023-11-22T02:29:51;2.00;;;1.90;;
13483;SDS011;6814;57.786;12.080;2023-11-22T02:32:18;2.40;;;2.20;;
13483;SDS011;6814;57.786;12.080;2023-11-22T02:34:44;2.77;;;2.50;;
13483;SDS011;6814;57.786;12.080;2023-11-22T02:37:11;2.60;;;2.40;;
13483;SDS011;6814;57.786;12.080;2023-11-22T02:39:41;3.03;;;2.50;;
13483;SDS011;6814;57.786;12.080;2023-11-22T02:42:09;2.50;;;2.30;;
13483;SDS011;6814;57.786;12.080;2023-11-22T02:44:36;2.90;;;2.23;;
13483;SDS011;6814;57.786;12.080;2023-11-22T02:47:02;2.67;;;2.47;;
13483;SDS011;6814;57.786;12.080;2023-11-22T02:49:29;2.90;;;2.70;;
13483;SDS011;6814;57.786;12.080;2023-11-22T02:51:55;2.80;;;2.60;;
13483;SDS011;6814;57.786;12.080;2023-11-22T02:54:22;2.70;;;2.50;;
13483;SDS011;6814;57.786;12.080;2023-11-22T02:56:48;3.17;;;2.50;;
13483;SDS011;6814;57.786;12.080;2023-11-22T02:59:16;2.70;;;2.50;;
13483;SDS011;6814;57.786;12.080;2023-11-22T03:01:43;3.13;;;2.47;;
13483;SDS011;6814;57.786;12.080;2023-11-22T03:04:11;3.17;;;2.40;;
13483;SDS011;6814;57.786;12.080;2023-11-22T03:06:37;2.90;;;2.63;;
13483;SDS011;6814;57.786;12.080;2023-11-22T03:09:03;2.67;;;2.47;;
13483;SDS011;6814;57.786;12.080;2023-11-22T03:11:30;2.73;;;2.53;;
13483;SDS011;6814;57.786;12.080;2023-11-22T03:13:57;2.93;;;2.23;;
13483;SDS011;6814;57.786;12.080;2023-11-22T03:16:25;2.73;;;2.47;;
13483;SDS011;6814;57.786;12.080;2023-11-22T03:18:51;2.67;;;2.47;;
13483;SDS011;6814;57.786;12.080;2023-11-22T03:21:19;3.00;;;2.70;;
13483;SDS011;6814;57.786;12.080;2023-11-22T03:23:45;2.40;;;2.20;;
13483;SDS011;6814;57.786;12.080;2023-11-22T03:26:12;3.07;;;2.77;;
13483;SDS011;6814;57.786;12.080;2023-11-22T03:28:38;2.43;;;2.23;;
13483;SDS011;6814;57.786;12.080;2023-11-22T03:31:04;3.20;;;2.73;;
13483;SDS011;6814;57.786;12.080;2023-11-22T03:33:34;3.17;;;2.60;;
13483;SDS011;6814;57.786;12.080;2023-11-22T03:36:00;2.73;;;2.50;;
13483;SDS011;6814;57.786;12.080;2023-11-22T03:38:27;3.07;;;2.50;;
13483;SDS011;6814;57.786;12.080;2023-11-22T03:40:53;4.07;;;2.83;;
13483;SDS011;6814;57.786;12.080;2023-11-22T03:43:20;4.17;;;2.43;;
13483;SDS011;6814;57.786;12.080;2023-11-22T03:45:46;2.70;;;2.50;;
13483;SDS011;6814;57.786;12.080;2023-11-22T03:48:12;2.80;;;2.60;;
13483;SDS011;6814;57.786;12.080;2023-11-22T03:50:40;4.10;;;2.90;;
13483;SDS011;6814;57.786;12.080;2023-11-22T03:53:06;2.67;;;2.47;;
13483;SDS011;6814;57.786;12.080;2023-11-22T03:55:33;3.27;;;2.97;;
13483;SDS011;6814;57.786;12.080;2023-11-22T03:57:59;3.23;;;2.53;;
13483;SDS011;6814;57.786;12.080;2023-11-22T04:00:26;3.53;;;2.80;;
13483;SDS011;6814;57.786;12.080;2023-11-22T04:02:52;3.33;;;3.03;;
13483;SDS011;6814;57.786;12.080;2023-11-22T04:05:19;4.07;;;3.00;;
13483;SDS011;6814;57.786;12.080;2023-11-22T04:07:47;3.10;;;2.80;;
13483;SDS011;6814;57.786;12.080;2023-11-22T04:10:14;3.57;;;3.10;;
13483;SDS011;6814;57.786;12.080;2023-11-22T04:12:40;3.47;;;3.17;;
13483;SDS011;6814;57.786;12.080;2023-11-22T04:15:07;3.20;;;2.90;;
13483;SDS011;6814;57.786;12.080;2023-11-22T04:17:35;4.13;;;3.10;;
13483;SDS011;6814;57.786;12.080;2023-11-22T04:20:02;3.57;;;3.13;;
13483;SDS011;6814;57.786;12.080;2023-11-22T04:22:31;4.37;;;3.00;;
13483;SDS011;6814;57.786;12.080;2023-11-22T04:25:00;3.20;;;2.90;;
13483;SDS011;6814;57.786;12.080;2023-11-22T04:27:27;3.33;;;2.93;;
13483;SDS011;6814;57.786;12.080;2023-11-22T04:29:53;3.20;;;2.90;;
13483;SDS011;6814;57.786;12.080;2023-11-22T04:32:20;4.50;;;3.00;;
13483;SDS011;6814;57.786;12.080;2023-11-22T04:34:47;3.73;;;3.03;;
13483;SDS011;6814;57.786;12.080;2023-11-22T04:37:13;3.53;;;3.23;;
13483;SDS011;6814;57.786;12.080;2023-11-22T04:39:40;3.03;;;2.73;;
13483;SDS011;6814;57.786;12.080;2023-11-22T04:42:07;3.47;;;3.17;;
13483;SDS011;6814;57.786;12.080;2023-11-22T04:44:34;3.77;;;3.37;;
13483;SDS011;6814;57.786;12.080;2023-11-22T04:47:00;3.47;;;2.80;;
13483;SDS011;6814;57.786;12.080;2023-11-22T04:49:27;3.27;;;2.97;;
13483;SDS011;6814;57.786;12.080;2023-11-22T04:51:53;4.07;;;3.30;;
13483;SDS011;6814;57.786;12.080;2023-11-22T04:54:20;4.63;;;3.40;;
13483;SDS011;6814;57.786;12.080;2023-11-22T04:56:46;3.77;;;3.30;;
13483;SDS011;6814;57.786;12.080;2023-11-22T04:59:14;4.93;;;4.20;;
13483;SDS011;6814;57.786;12.080;2023-11-22T05:01:40;4.97;;;4.57;;
13483;SDS011;6814;57.786;12.080;2023-11-22T05:04:07;3.73;;;3.23;;
13483;SDS011;6814;57.786;12.080;2023-11-22T05:06:33;5.93;;;3.43;;
13483;SDS011;6814;57.786;12.080;2023-11-22T05:09:00;3.70;;;3.30;;
13483;SDS011;6814;57.786;12.080;2023-11-22T05:11:26;4.83;;;3.70;;
13483;SDS011;6814;57.786;12.080;2023-11-22T05:13:53;4.13;;;3.27;;
13483;SDS011;6814;57.786;12.080;2023-11-22T05:16:20;4.80;;;3.80;;
13483;SDS011;6814;57.786;12.080;2023-11-22T05:18:47;3.80;;;3.40;;
13483;SDS011;6814;57.786;12.080;2023-11-22T05:21:13;4.73;;;3.43;;
13483;SDS011;6814;57.786;12.080;2023-11-22T05:23:40;4.77;;;3.80;;
13483;SDS011;6814;57.786;12.080;2023-11-22T05:26:06;4.07;;;3.30;;
13483;SDS011;6814;57.786;12.080;2023-11-22T05:28:33;4.13;;;3.73;;
13483;SDS011;6814;57.786;12.080;2023-11-22T05:31:00;7.03;;;4.00;;
13483;SDS011;6814;57.786;12.080;2023-11-22T05:33:28;4.47;;;3.67;;
13483;SDS011;6814;57.786;12.080;2023-11-22T05:35:54;3.80;;;3.17;;
13483;SDS011;6814;57.786;12.080;2023-11-22T05:38:20;6.30;;;3.97;;
13483;SDS011;6814;57.786;12.080;2023-11-22T05:40:47;5.10;;;4.07;;
13483;SDS011;6814;57.786;12.080;2023-11-22T05:43:13;5.27;;;3.67;;
13483;SDS011;6814;57.786;12.080;2023-11-22T05:45:40;5.57;;;4.50;;
13483;SDS011;6814;57.786;12.080;2023-11-22T05:48:06;4.57;;;3.67;;
13483;SDS011;6814;57.786;12.080;2023-11-22T05:50:34;4.30;;;3.87;;
13483;SDS011;6814;57.786;12.080;2023-11-22T05:53:01;4.10;;;3.70;;
13483;SDS011;6814;57.786;12.080;2023-11-22T05:55:30;5.37;;;4.17;;
13483;SDS011;6814;57.786;12.080;2023-11-22T05:57:58;4.77;;;3.60;;
13483;SDS011;6814;57.786;12.080;2023-11-22T06:00:27;4.23;;;3.73;;
13483;SDS011;6814;57.786;12.080;2023-11-22T06:02:54;5.77;;;4.23;;
13483;SDS011;6814;57.786;12.080;2023-11-22T06:05:20;4.10;;;3.50;;
13483;SDS011;6814;57.786;12.080;2023-11-22T06:07:48;6.13;;;4.30;;
13483;SDS011;6814;57.786;12.080;2023-11-22T06:10:15;4.47;;;3.90;;
13483;SDS011;6814;57.786;12.080;2023-11-22T06:12:41;4.37;;;3.77;;
13483;SDS011;6814;57.786;12.080;2023-11-22T06:15:09;7.03;;;4.23;;
13483;SDS011;6814;57.786;12.080;2023-11-22T06:17:35;5.50;;;4.80;;
13483;SDS011;6814;57.786;12.080;2023-11-22T06:20:02;5.50;;;4.67;;
13483;SDS011;6814;57.786;12.080;2023-11-22T06:22:30;5.80;;;4.07;;
13483;SDS011;6814;57.786;12.080;2023-11-22T06:24:59;5.33;;;4.43;;
13483;SDS011;6814;57.786;12.080;2023-11-22T06:27:25;4.57;;;4.17;;
13483;SDS011;6814;57.786;12.080;2023-11-22T06:29:51;4.97;;;4.27;;
13483;SDS011;6814;57.786;12.080;2023-11-22T06:32:18;5.00;;;4.17;;
13483;SDS011;6814;57.786;12.080;2023-11-22T06:34:44;5.43;;;4.47;;
13483;SDS011;6814;57.786;12.080;2023-11-22T06:37:11;4.73;;;4.23;;
13483;SDS011;6814;57.786;12.080;2023-11-22T06:39:37;5.73;;;5.13;;
13483;SDS011;6814;57.786;12.080;2023-11-22T06:42:05;5.53;;;4.37;;
13483;SDS011;6814;57.786;12.080;2023-11-22T06:44:33;5.10;;;4.13;;
13483;SDS011;6814;57.786;12.080;2023-11-22T06:47:00;8.90;;;4.60;;
13483;SDS011;6814;57.786;12.080;2023-11-22T06:49:27;6.70;;;4.57;;
13483;SDS011;6814;57.786;12.080;2023-11-22T06:51:53;6.93;;;4.80;;
13483;SDS011;6814;57.786;12.080;2023-11-22T06:54:19;6.80;;;4.40;;
13483;SDS011;6814;57.786;12.080;2023-11-22T06:56:46;6.53;;;4.87;;
13483;SDS011;6814;57.786;12.080;2023-11-22T06:59:14;7.23;;;4.83;;
13483;SDS011;6814;57.786;12.080;2023-11-22T07:01:40;5.50;;;4.97;;
13483;SDS011;6814;57.786;12.080;2023-11-22T07:04:07;5.73;;;4.70;;
13483;SDS011;6814;57.786;12.080;2023-11-22T07:06:33;7.47;;;5.03;;
13483;SDS011;6814;57.786;12.080;2023-11-22T07:09:01;6.33;;;4.57;;
13483;SDS011;6814;57.786;12.080;2023-11-22T07:11:28;6.73;;;4.67;;
13483;SDS011;6814;57.786;12.080;2023-11-22T07:13:56;7.27;;;5.07;;
13483;SDS011;6814;57.786;12.080;2023-11-22T07:16:24;5.33;;;4.17;;
13483;SDS011;6814;57.786;12.080;2023-11-22T07:18:50;8.13;;;4.60;;
13483;SDS011;6814;57.786;12.080;2023-11-22T07:21:17;5.70;;;4.77;;
13483;SDS011;6814;57.786;12.080;2023-11-22T07:23:44;6.83;;;4.67;;
13483;SDS011;6814;57.786;12.080;2023-11-22T07:26:11;7.13;;;4.60;;
13483;SDS011;6814;57.786;12.080;2023-11-22T07:28:39;7.23;;;4.53;;
13483;SDS011;6814;57.786;12.080;2023-11-22T07:31:06;6.33;;;4.50;;
13483;SDS011;6814;57.786;12.080;2023-11-22T07:33:34;5.17;;;4.17;;
13483;SDS011;6814;57.786;12.080;2023-11-22T07:36:01;4.90;;;4.30;;
13483;SDS011;6814;57.786;12.080;2023-11-22T07:38:28;6.17;;;3.90;;
13483;SDS011;6814;57.786;12.080;2023-11-22T07:40:56;7.77;;;4.53;;
13483;SDS011;6814;57.786;12.080;2023-11-22T07:43:22;7.87;;;4.87;;
13483;SDS011;6814;57.786;12.080;2023-11-22T07:45:49;5.50;;;4.47;;
13483;SDS011;6814;57.786;12.080;2023-11-22T07:48:18;4.93;;;3.90;;
13483;SDS011;6814;57.786;12.080;2023-11-22T07:50:46;5.77;;;3.87;;
13483;SDS011;6814;57.786;12.080;2023-11-22T07:53:14;5.67;;;4.20;;
13483;SDS011;6814;57.786;12.080;2023-11-22T07:55:40;4.87;;;3.87;;
13483;SDS011;6814;57.786;12.080;2023-11-22T07:58:07;6.80;;;4.10;;
13483;SDS011;6814;57.786;12.080;2023-11-22T08:00:36;3.60;;;3.30;;
13483;SDS011;6814;57.786;12.080;2023-11-22T08:03:02;5.97;;;3.27;;
13483;SDS011;6814;57.786;12.080;2023-11-22T08:05:28;5.23;;;3.27;;
13483;SDS011;6814;57.786;12.080;2023-11-22T08:08:01;4.90;;;2.63;;
13483;SDS011;6814;57.786;12.080;2023-11-22T08:10:31;4.77;;;3.23;;
13483;SDS011;6814;57.786;12.080;2023-11-22T08:12:59;3.53;;;2.40;;
13483;SDS011;6814;57.786;12.080;2023-11-22T08:15:27;3.70;;;2.90;;
13483;SDS011;6814;57.786;12.080;2023-11-22T08:17:54;4.77;;;2.70;;
13483;SDS011;6814;57.786;12.080;2023-11-22T08:20:20;3.47;;;2.70;;
13483;SDS011;6814;57.786;12.080;2023-11-22T08:22:47;5.80;;;2.70;;
13483;SDS011;6814;57.786;12.080;2023-11-22T08:25:15;2.17;;;1.93;;
13483;SDS011;6814;57.786;12.080;2023-11-22T08:27:42;2.57;;;2.00;;
13483;SDS011;6814;57.786;12.080;2023-11-22T08:30:09;3.83;;;2.00;;
13483;SDS011;6814;57.786;12.080;2023-11-22T08:32:38;7.47;;;2.63;;
13483;SDS011;6814;57.786;12.080;2023-11-22T08:35:06;4.07;;;2.20;;
13483;SDS011;6814;57.786;12.080;2023-11-22T08:37:33;3.53;;;2.23;;
13483;SDS011;6814;57.786;12.080;2023-11-22T08:40:03;4.30;;;2.40;;
13483;SDS011;6814;57.786;12.080;2023-11-22T08:42:30;3.07;;;2.00;;
13483;SDS011;6814;57.786;12.080;2023-11-22T08:44:57;3.00;;;1.93;;
13483;SDS011;6814;57.786;12.080;2023-11-22T08:47:23;4.70;;;2.40;;
13483;SDS011;6814;57.786;12.080;2023-11-22T08:49:50;2.80;;;2.43;;
13483;SDS011;6814;57.786;12.080;2023-11-22T08:55:36;5.10;;;2.43;;
13483;SDS011;6814;57.786;12.080;2023-11-22T08:58:04;3.57;;;2.17;;
13483;SDS011;6814;57.786;12.080;2023-11-22T09:00:33;5.17;;;2.67;;
13483;SDS011;6814;57.786;12.080;2023-11-22T09:03:00;5.13;;;2.43;;
13483;SDS011;6814;57.786;12.080;2023-11-22T09:05:28;3.37;;;2.80;;
13483;SDS011;6814;57.786;12.080;2023-11-22T09:07:54;5.47;;;2.70;;
13483;SDS011;6814;57.786;12.080;2023-11-22T09:10:23;3.63;;;2.77;;
13483;SDS011;6814;57.786;12.080;2023-11-22T09:12:49;4.60;;;2.30;;
13483;SDS011;6814;57.786;12.080;2023-11-22T09:15:18;3.87;;;2.60;;
13483;SDS011;6814;57.786;12.080;2023-11-22T09:17:51;3.97;;;2.20;;
13483;SDS011;6814;57.786;12.080;2023-11-22T09:20:19;7.73;;;2.43;;
13483;SDS011;6814;57.786;12.080;2023-11-22T09:22:46;6.03;;;2.50;;
13483;SDS011;6814;57.786;12.080;2023-11-22T09:25:13;5.57;;;3.00;;
13483;SDS011;6814;57.786;12.080;2023-11-22T09:27:41;4.60;;;2.80;;
13483;SDS011;6814;57.786;12.080;2023-11-22T09:30:08;5.37;;;3.03;;
13483;SDS011;6814;57.786;12.080;2023-11-22T09:32:44;5.93;;;2.93;;
13483;SDS011;6814;57.786;12.080;2023-11-22T09:35:11;7.33;;;3.33;;
13483;SDS011;6814;57.786;12.080;2023-11-22T09:37:39;7.70;;;3.33;;
13483;SDS011;6814;57.786;12.080;2023-11-22T09:40:07;6.30;;;2.90;;
13483;SDS011;6814;57.786;12.080;2023-11-22T09:42:34;7.50;;;3.20;;
13483;SDS011;6814;57.786;12.080;2023-11-22T09:45:02;5.70;;;2.50;;
13483;SDS011;6814;57.786;12.080;2023-11-22T09:47:29;6.70;;;3.03;;
13483;SDS011;6814;57.786;12.080;2023-11-22T09:49:59;4.70;;;2.57;;
13483;SDS011;6814;57.786;12.080;2023-11-22T09:52:30;6.47;;;2.70;;
13483;SDS011;6814;57.786;12.080;2023-11-22T09:54:59;5.37;;;2.90;;
13483;SDS011;6814;57.786;12.080;2023-11-22T09:57:26;5.73;;;2.90;;
13483;SDS011;6814;57.786;12.080;2023-11-22T09:59:54;5.80;;;2.70;;
13483;SDS011;6814;57.786;12.080;2023-11-22T10:02:21;6.70;;;2.93;;
13483;SDS011;6814;57.786;12.080;2023-11-22T10:04:52;4.60;;;2.90;;
13483;SDS011;6814;57.786;12.080;2023-11-22T10:07:19;7.83;;;2.90;;
13483;SDS011;6814;57.786;12.080;2023-11-22T10:09:47;7.47;;;2.90;;
13483;SDS011;6814;57.786;12.080;2023-11-22T10:12:18;4.27;;;2.60;;
13483;SDS011;6814;57.786;12.080;2023-11-22T10:14:45;5.93;;;2.80;;
13483;SDS011;6814;57.786;12.080;2023-11-22T10:17:12;5.13;;;3.00;;
13483;SDS011;6814;57.786;12.080;2023-11-22T10:19:40;4.73;;;2.73;;
13483;SDS011;6814;57.786;12.080;2023-11-22T10:22:07;8.00;;;2.50;;
13483;SDS011;6814;57.786;12.080;2023-11-22T10:24:35;5.10;;;3.03;;
13483;SDS011;6814;57.786;12.080;2023-11-22T10:27:02;7.53;;;2.80;;
13483;SDS011;6814;57.786;12.080;2023-11-22T10:29:28;6.30;;;2.90;;
13483;SDS011;6814;57.786;12.080;2023-11-22T10:31:55;7.47;;;2.87;;
13483;SDS011;6814;57.786;12.080;2023-11-22T10:34:22;5.43;;;2.90;;
13483;SDS011;6814;57.786;12.080;2023-11-22T10:36:50;7.23;;;2.80;;
13483;SDS011;6814;57.786;12.080;2023-11-22T10:39:18;8.50;;;3.00;;
13483;SDS011;6814;57.786;12.080;2023-11-22T10:41:46;5.00;;;2.73;;
13483;SDS011;6814;57.786;12.080;2023-11-22T10:44:13;10.00;;;3.10;;
13483;SDS011;6814;57.786;12.080;2023-11-22T10:46:41;7.50;;;2.80;;
13483;SDS011;6814;57.786;12.080;2023-11-22T10:49:08;6.27;;;3.10;;
13483;SDS011;6814;57.786;12.080;2023-11-22T10:51:35;4.77;;;2.60;;
13483;SDS011;6814;57.786;12.080;2023-11-22T10:54:05;9.67;;;2.83;;
13483;SDS011;6814;57.786;12.080;2023-11-22T10:56:33;4.60;;;2.43;;
13483;SDS011;6814;57.786;12.080;2023-11-22T10:59:04;6.67;;;3.20;;
13483;SDS011;6814;57.786;12.080;2023-11-22T11:01:33;6.90;;;2.90;;
13483;SDS011;6814;57.786;12.080;2023-11-22T11:04:01;6.37;;;3.00;;
13483;SDS011;6814;57.786;12.080;2023-11-22T11:06:30;6.37;;;2.53;;
13483;SDS011;6814;57.786;12.080;2023-11-22T11:08:59;10.00;;;3.53;;
13483;SDS011;6814;57.786;12.080;2023-11-22T11:11:25;5.73;;;2.93;;
13483;SDS011;6814;57.786;12.080;2023-11-22T11:13:53;5.67;;;3.00;;
13483;SDS011;6814;57.786;12.080;2023-11-22T11:16:23;5.53;;;2.40;;
13483;SDS011;6814;57.786;12.080;2023-11-22T11:18:50;3.53;;;2.33;;
13483;SDS011;6814;57.786;12.080;2023-11-22T11:21:16;9.77;;;3.43;;
13483;SDS011;6814;57.786;12.080;2023-11-22T11:23:44;7.73;;;2.93;;
13483;SDS011;6814;57.786;12.080;2023-11-22T11:26:14;7.17;;;2.80;;
13483;SDS011;6814;57.786;12.080;2023-11-22T11:28:42;7.27;;;3.10;;
13483;SDS011;6814;57.786;12.080;2023-11-22T11:31:09;8.20;;;3.10;;
13483;SDS011;6814;57.786;12.080;2023-11-22T11:33:53;8.80;;;2.67;;
13483;SDS011;6814;57.786;12.080;2023-11-22T11:36:21;7.83;;;2.77;;
13483;SDS011;6814;57.786;12.080;2023-11-22T11:38:48;5.70;;;2.90;;
13483;SDS011;6814;57.786;12.080;2023-11-22T11:41:15;8.23;;;2.60;;
13483;SDS011;6814;57.786;12.080;2023-11-22T11:43:42;7.93;;;3.87;;
13483;SDS011;6814;57.786;12.080;2023-11-22T11:46:09;9.90;;;3.40;;
13483;SDS011;6814;57.786;12.080;2023-11-22T11:48:39;9.27;;;3.40;;
13483;SDS011;6814;57.786;12.080;2023-11-22T11:51:13;8.60;;;2.87;;
13483;SDS011;6814;57.786;12.080;2023-11-22T11:53:39;7.67;;;3.70;;
13483;SDS011;6814;57.786;12.080;2023-11-22T11:56:06;6.17;;;2.97;;
13483;SDS011;6814;57.786;12.080;2023-11-22T11:58:33;7.17;;;2.90;;
13483;SDS011;6814;57.786;12.080;2023-11-22T12:01:00;10.47;;;2.93;;
13483;SDS011;6814;57.786;12.080;2023-11-22T12:03:27;9.00;;;3.23;;
13483;SDS011;6814;57.786;12.080;2023-11-22T12:05:55;7.43;;;3.50;;
13483;SDS011;6814;57.786;12.080;2023-11-22T12:08:22;5.93;;;2.17;;
13483;SDS011;6814;57.786;12.080;2023-11-22T12:10:49;7.70;;;2.73;;
13483;SDS011;6814;57.786;12.080;2023-11-22T12:13:16;5.57;;;2.60;;
13483;SDS011;6814;57.786;12.080;2023-11-22T12:15:43;12.00;;;2.70;;
13483;SDS011;6814;57.786;12.080;2023-11-22T12:18:09;9.07;;;3.10;;
13483;SDS011;6814;57.786;12.080;2023-11-22T12:20:36;8.10;;;2.80;;
13483;SDS011;6814;57.786;12.080;2023-11-22T12:23:04;7.03;;;3.20;;
13483;SDS011;6814;57.786;12.080;2023-11-22T12:25:32;7.03;;;2.27;;
13483;SDS011;6814;57.786;12.080;2023-11-22T12:27:58;8.43;;;2.77;;
13483;SDS011;6814;57.786;12.080;2023-11-22T12:30:28;8.80;;;3.13;;
13483;SDS011;6814;57.786;12.080;2023-11-22T12:32:55;9.03;;;2.40;;
13483;SDS011;6814;57.786;12.080;2023-11-22T12:35:22;7.13;;;2.73;;
13483;SDS011;6814;57.786;12.080;2023-11-22T12:37:48;6.77;;;2.50;;
13483;SDS011;6814;57.786;12.080;2023-11-22T12:40:19;7.97;;;3.63;;
13483;SDS011;6814;57.786;12.080;2023-11-22T12:42:49;8.10;;;3.27;;
13483;SDS011;6814;57.786;12.080;2023-11-22T12:45:19;13.07;;;4.30;;
13483;SDS011;6814;57.786;12.080;2023-11-22T12:47:46;10.70;;;3.00;;
13483;SDS011;6814;57.786;12.080;2023-11-22T12:52:55;10.60;;;3.50;;
13483;SDS011;6814;57.786;12.080;2023-11-22T12:55:23;11.70;;;3.27;;
13483;SDS011;6814;57.786;12.080;2023-11-22T12:57:55;9.70;;;2.73;;
13483;SDS011;6814;57.786;12.080;2023-11-22T13:00:22;13.17;;;3.90;;
13483;SDS011;6814;57.786;12.080;2023-11-22T13:02:48;11.10;;;3.33;;
13483;SDS011;6814;57.786;12.080;2023-11-22T13:05:15;9.73;;;3.20;;
13483;SDS011;6814;57.786;12.080;2023-11-22T13:07:41;10.23;;;3.30;;
13483;SDS011;6814;57.786;12.080;2023-11-22T13:10:08;8.53;;;3.43;;
13483;SDS011;6814;57.786;12.080;2023-11-22T13:12:36;6.00;;;3.23;;
13483;SDS011;6814;57.786;12.080;2023-11-22T13:15:03;11.57;;;3.13;;
13483;SDS011;6814;57.786;12.080;2023-11-22T13:17:30;10.73;;;3.97;;
13483;SDS011;6814;57.786;12.080;2023-11-22T13:19:56;13.67;;;3.63;;
13483;SDS011;6814;57.786;12.080;2023-11-22T13:22:23;13.27;;;4.60;;
13483;SDS011;6814;57.786;12.080;2023-11-22T13:24:50;10.13;;;3.60;;
13483;SDS011;6814;57.786;12.080;2023-11-22T13:27:16;12.33;;;4.37;;
13483;SDS011;6814;57.786;12.080;2023-11-22T13:29:44;17.43;;;5.20;;
13483;SDS011;6814;57.786;12.080;2023-11-22T13:32:10;16.53;;;4.93;;
13483;SDS011;6814;57.786;12.080;2023-11-22T13:34:37;14.27;;;4.00;;
13483;SDS011;6814;57.786;12.080;2023-11-22T13:37:03;14.43;;;5.00;;
13483;SDS011;6814;57.786;12.080;2023-11-22T13:39:30;10.60;;;4.10;;
13483;SDS011;6814;57.786;12.080;2023-11-22T13:41:58;13.03;;;4.77;;
13483;SDS011;6814;57.786;12.080;2023-11-22T13:44:25;17.90;;;6.53;;
13483;SDS011;6814;57.786;12.080;2023-11-22T13:46:53;12.63;;;5.17;;
13483;SDS011;6814;57.786;12.080;2023-11-22T13:49:20;13.60;;;5.30;;
13483;SDS011;6814;57.786;12.080;2023-11-22T13:51:50;14.77;;;5.73;;
13483;SDS011;6814;57.786;12.080;2023-11-22T13:54:16;17.73;;;7.03;;
13483;SDS011;6814;57.786;12.080;2023-11-22T13:56:44;15.60;;;5.83;;
13483;SDS011;6814;57.786;12.080;2023-11-22T13:59:11;15.13;;;5.57;;
13483;SDS011;6814;57.786;12.080;2023-11-22T14:01:37;19.43;;;6.17;;
13483;SDS011;6814;57.786;12.080;2023-11-22T14:04:06;15.63;;;5.23;;
13483;SDS011;6814;57.786;12.080;2023-11-22T14:06:32;12.90;;;4.70;;
13483;SDS011;6814;57.786;12.080;2023-11-22T14:08:59;19.70;;;7.07;;
13483;SDS011;6814;57.786;12.080;2023-11-22T14:11:25;12.37;;;5.50;;
13483;SDS011;6814;57.786;12.080;2023-11-22T14:13:52;15.67;;;6.80;;
13483;SDS011;6814;57.786;12.080;2023-11-22T14:16:18;15.53;;;7.20;;
13483;SDS011;6814;57.786;12.080;2023-11-22T14:18:44;18.53;;;6.63;;
13483;SDS011;6814;57.786;12.080;2023-11-22T14:21:12;20.20;;;7.13;;
13483;SDS011;6814;57.786;12.080;2023-11-22T14:23:39;16.80;;;6.43;;
13483;SDS011;6814;57.786;12.080;2023-11-22T14:26:06;13.83;;;6.67;;
13483;SDS011;6814;57.786;12.080;2023-11-22T14:28:33;13.67;;;7.53;;
13483;SDS011;6814;57.786;12.080;2023-11-22T14:31:02;19.90;;;8.63;;
13483;SDS011;6814;57.786;12.080;2023-11-22T14:33:28;19.07;;;6.27;;
13483;SDS011;6814;57.786;12.080;2023-11-22T14:35:57;14.80;;;6.10;;
13483;SDS011;6814;57.786;12.080;2023-11-22T14:38:25;14.43;;;7.47;;
13483;SDS011;6814;57.786;12.080;2023-11-22T14:40:51;19.37;;;6.37;;
13483;SDS011;6814;57.786;12.080;2023-11-22T14:43:18;14.60;;;7.10;;
13483;SDS011;6814;57.786;12.080;2023-11-22T14:45:44;21.83;;;7.27;;
13483;SDS011;6814;57.786;12.080;2023-11-22T14:48:11;18.07;;;8.53;;
13483;SDS011;6814;57.786;12.080;2023-11-22T14:50:38;12.87;;;5.90;;